Time;durP1;ratioP1;P1;durP2;ratioP2;P2;SDS_P1;SDS_P2;PMS_P1;PMS_P2;Temp;Humidity;BMP_temperature;BMP_pressure;BME280_temperature;BME280_humidity;BME280_pressure;Samples;Min_cycle;Max_cycle;Signal;HPM_P1;HPM_P2
2022/06/12 00:00:30;;;;;;;8.20;7.50;;;19.40;99.90;;;;;;5113833;28;20492;-71
2022/06/12 00:02:58;;;;;;;7.67;7.10;;;19.40;99.90;;;;;;5114597;28;20405;-70
2022/06/12 00:05:28;;;;;;;8.20;7.50;;;19.40;99.90;;;;;;5112493;28;20426;-74
2022/06/12 00:07:54;;;;;;;8.80;7.93;;;19.40;99.90;;;;;;5114466;28;20409;-70
2022/06/12 00:10:20;;;;;;;8.27;7.67;;;19.40;99.90;;;;;;5114216;28;20762;-70
2022/06/12 00:12:47;;;;;;;7.50;6.90;;;19.30;99.90;;;;;;5113547;28;20160;-70
2022/06/12 00:15:16;;;;;;;7.70;6.90;;;19.30;99.90;;;;;;5114049;28;20769;-71
2022/06/12 00:17:43;;;;;;;7.80;7.27;;;19.20;99.90;;;;;;5113274;28;20398;-71
2022/06/12 00:20:12;;;;;;;7.70;7.10;;;19.00;99.90;;;;;;5113896;28;20457;-70
2022/06/12 00:22:38;;;;;;;7.03;6.53;;;19.00;99.90;;;;;;5113263;28;20566;-70
2022/06/12 00:25:06;;;;;;;8.00;7.30;;;19.00;99.90;;;;;;5112739;28;20531;-70
2022/06/12 00:27:32;;;;;;;7.40;6.70;;;19.10;99.90;;;;;;5113249;28;20180;-71
2022/06/12 00:29:57;;;;;;;7.87;6.70;;;19.10;99.90;;;;;;5113836;28;20421;-71
2022/06/12 00:32:24;;;;;;;6.80;6.20;;;19.10;99.90;;;;;;5113822;28;20171;-71
2022/06/12 00:34:53;;;;;;;7.67;6.97;;;19.10;99.90;;;;;;5113719;28;20171;-71
2022/06/12 00:37:22;;;;;;;7.00;6.50;;;19.10;99.90;;;;;;5113823;28;20416;-70
2022/06/12 00:39:50;;;;;;;7.20;6.70;;;19.10;99.90;;;;;;5113116;28;20409;-70
2022/06/12 00:42:27;;;;;;;7.10;6.50;;;19.10;99.90;;;;;;5113599;28;20413;-70
2022/06/12 00:44:55;;;;;;;7.60;7.07;;;19.10;99.90;;;;;;5112199;28;20452;-71
2022/06/12 00:47:22;;;;;;;7.73;7.13;;;19.00;99.90;;;;;;5113295;28;20405;-70
2022/06/12 00:49:57;;;;;;;8.27;7.33;;;19.00;99.90;;;;;;5111400;28;20769;-70
2022/06/12 00:52:25;;;;;;;8.13;7.53;;;19.00;99.90;;;;;;5113455;28;20433;-70
2022/06/12 00:54:55;;;;;;;7.77;7.17;;;19.00;99.90;;;;;;5113425;28;20418;-70
2022/06/12 00:57:23;;;;;;;7.93;7.43;;;19.00;99.90;;;;;;5113447;28;20420;-71
2022/06/12 00:59:51;;;;;;;8.60;7.80;;;18.90;99.90;;;;;;5112507;28;20398;-71
2022/06/12 01:02:22;;;;;;;9.33;7.67;;;18.80;99.90;;;;;;5113285;28;20412;-70
2022/06/12 01:07:38;;;;;;;8.17;7.47;;;18.80;99.90;;;;;;5111362;28;20690;-71
2022/06/12 01:10:07;;;;;;;7.00;6.50;;;18.70;99.90;;;;;;5113208;28;20783;-71
2022/06/12 01:12:37;;;;;;;7.20;6.60;;;18.70;99.90;;;;;;5112601;28;20941;-71
2022/06/12 01:15:12;;;;;;;6.87;6.27;;;18.70;99.90;;;;;;5112178;28;20480;-70
2022/06/12 01:17:39;;;;;;;7.47;6.77;;;18.80;99.90;;;;;;5112633;28;20396;-71
2022/06/12 01:20:12;;;;;;;7.13;6.43;;;18.80;99.90;;;;;;5113147;28;20453;-71
2022/06/12 01:22:56;;;;;;;8.27;6.73;;;18.80;99.90;;;;;;5112626;28;20427;-71
2022/06/12 01:25:25;;;;;;;6.57;6.07;;;18.80;99.90;;;;;;5113101;28;20398;-71
2022/06/12 01:28:03;;;;;;;7.53;6.87;;;18.80;99.90;;;;;;5112471;28;20434;-70
2022/06/12 01:30:39;;;;;;;7.13;6.53;;;18.80;99.90;;;;;;5112511;28;20398;-71
2022/06/12 01:33:42;;;;;;;7.57;6.80;;;18.70;99.90;;;;;;5113084;28;20739;-71
2022/06/12 01:36:23;;;;;;;6.80;6.30;;;18.70;99.90;;;;;;5097491;28;20429;-71
2022/06/12 01:39:02;;;;;;;7.23;6.60;;;18.70;99.90;;;;;;5112454;28;20697;-70
2022/06/12 01:41:44;;;;;;;7.33;6.77;;;18.70;99.90;;;;;;5111800;28;20891;-70
2022/06/12 01:44:23;;;;;;;7.63;7.13;;;18.70;99.90;;;;;;5111840;28;20478;-71
2022/06/12 01:47:17;;;;;;;9.17;6.90;;;18.70;99.90;;;;;;5112325;28;20669;-71
2022/06/12 01:50:17;;;;;;;9.97;7.67;;;18.60;99.90;;;;;;5096415;28;20421;-71
2022/06/12 01:53:03;;;;;;;7.53;6.83;;;18.60;99.90;;;;;;5104692;28;20426;-70
2022/06/12 01:55:51;;;;;;;6.50;6.00;;;18.60;99.90;;;;;;5112437;28;20429;-70
2022/06/12 01:58:28;;;;;;;7.27;6.57;;;18.60;99.90;;;;;;5112920;28;20412;-71
2022/06/12 02:01:14;;;;;;;7.80;7.20;;;18.50;99.90;;;;;;5111037;28;20401;-70
2022/06/12 02:03:47;;;;;;;7.30;6.80;;;18.50;99.90;;;;;;5112052;28;20429;-71
2022/06/12 02:06:52;;;;;;;6.30;5.90;;;18.50;99.90;;;;;;5112863;28;20386;-70
2022/06/12 02:09:23;;;;;;;6.57;6.07;;;18.50;99.90;;;;;;5112815;28;20417;-71
2022/06/12 02:14:46;;;;;;;7.57;6.87;;;18.30;99.90;;;;;;5112119;28;20393;-71
2022/06/12 02:17:16;;;;;;;7.00;6.30;;;18.30;99.90;;;;;;5112635;28;20838;-70
2022/06/12 02:19:43;;;;;;;7.23;6.67;;;18.30;99.90;;;;;;5111511;28;20474;-71
2022/06/12 02:22:23;;;;;;;8.33;7.57;;;18.30;99.90;;;;;;5115156;28;20500;-71
2022/06/12 02:25:13;;;;;;;6.80;6.30;;;18.20;99.90;;;;;;5115659;28;20487;-71
2022/06/12 02:28:04;;;;;;;7.40;6.87;;;18.20;99.90;;;;;;5115648;28;20406;-71
2022/06/12 02:30:34;;;;;;;9.60;6.90;;;18.20;99.90;;;;;;5115905;28;20916;-70
2022/06/12 02:33:07;;;;;;;7.43;6.80;;;18.10;99.90;;;;;;5116144;28;20801;-70
2022/06/12 02:35:47;;;;;;;7.03;6.53;;;18.00;99.90;;;;;;5115481;28;20452;-71
2022/06/12 02:38:29;;;;;;;7.43;6.83;;;18.00;99.90;;;;;;5116132;28;20398;-71
2022/06/12 02:41:05;;;;;;;7.20;6.70;;;17.90;99.90;;;;;;5115428;28;20711;-70
2022/06/12 02:43:36;;;;;;;7.50;6.80;;;17.90;99.90;;;;;;5115800;28;20445;-70
2022/06/12 02:46:21;;;;;;;7.33;6.63;;;17.90;99.90;;;;;;5116038;28;20388;-70
2022/06/12 02:48:47;;;;;;;6.50;6.10;;;17.90;99.90;;;;;;5114035;28;20417;-70
2022/06/12 02:51:34;;;;;;;7.87;7.10;;;17.80;99.90;;;;;;5115724;28;20414;-70
2022/06/12 02:54:22;;;;;;;7.50;6.90;;;17.80;99.90;;;;;;5115944;28;20458;-71
2022/06/12 02:57:19;;;;;;;7.13;6.43;;;17.70;99.90;;;;;;5115027;28;20495;-70
2022/06/12 03:00:00;;;;;;;7.77;7.17;;;17.70;99.90;;;;;;5115068;28;20492;-70
2022/06/12 03:02:32;;;;;;;7.43;6.83;;;17.60;99.90;;;;;;5116061;28;20386;-70
2022/06/12 03:05:23;;;;;;;7.90;6.90;;;17.50;99.90;;;;;;5114840;28;20452;-70
2022/06/12 03:08:01;;;;;;;7.57;7.07;;;17.50;99.90;;;;;;5114895;28;20405;-70
2022/06/12 03:10:31;;;;;;;7.40;6.90;;;17.50;99.90;;;;;;5115483;28;20425;-70
2022/06/12 03:12:57;;;;;;;7.83;7.10;;;17.50;99.90;;;;;;5113566;28;20386;-70
2022/06/12 03:15:39;;;;;;;7.33;6.70;;;17.40;99.90;;;;;;5115398;28;20462;-71
2022/06/12 03:18:07;;;;;;;8.03;7.27;;;17.40;99.90;;;;;;5114189;28;20766;-70
2022/06/12 03:20:56;;;;;;;7.50;6.80;;;17.40;99.90;;;;;;5114765;28;20507;-71
2022/06/12 03:23:32;;;;;;;7.60;7.00;;;17.40;99.90;;;;;;5109241;28;20837;-70
2022/06/12 03:25:59;;;;;;;8.40;7.70;;;17.40;99.90;;;;;;5114613;28;20406;-70
2022/06/12 03:28:45;;;;;;;8.23;7.53;;;17.40;99.90;;;;;;5115021;28;20945;-70
2022/06/12 03:31:19;;;;;;;8.67;7.93;;;17.30;99.90;;;;;;5114974;28;20404;-70
2022/06/12 03:34:08;;;;;;;7.50;7.00;;;17.30;99.90;;;;;;5112046;28;20397;-70
2022/06/12 03:37:11;;;;;;;8.83;8.23;;;17.30;99.90;;;;;;5114956;28;20402;-70
2022/06/12 03:39:55;;;;;;;10.80;8.30;;;17.20;99.90;;;;;;5113544;28;20428;-71
2022/06/12 03:42:36;;;;;;;7.53;6.87;;;17.20;99.90;;;;;;5114881;28;20394;-70
2022/06/12 03:45:22;;;;;;;8.60;7.77;;;17.20;99.90;;;;;;5113544;28;20449;-70
2022/06/12 03:48:29;;;;;;;7.63;6.93;;;17.10;99.90;;;;;;5114089;28;20944;-70
2022/06/12 03:51:14;;;;;;;8.00;7.33;;;17.10;99.90;;;;;;5114046;28;20444;-70
2022/06/12 03:54:01;;;;;;;7.20;6.50;;;17.10;99.90;;;;;;5113695;28;20742;-71
2022/06/12 03:59:25;;;;;;;8.30;7.70;;;17.10;99.90;;;;;;5114579;28;20393;-70
2022/06/12 04:01:51;;;;;;;8.87;7.90;;;17.10;99.90;;;;;;5113744;28;20397;-71
2022/06/12 04:04:20;;;;;;;7.33;6.70;;;17.10;99.90;;;;;;5113937;28;20935;-70
2022/06/12 04:06:48;;;;;;;9.03;8.20;;;17.10;99.90;;;;;;5113730;28;20456;-70
2022/06/12 04:09:18;;;;;;;9.80;7.60;;;17.10;99.90;;;;;;5114039;28;20874;-70
2022/06/12 04:11:50;;;;;;;8.40;7.70;;;17.10;99.90;;;;;;5113669;28;20420;-71
2022/06/12 04:14:18;;;;;;;8.40;7.70;;;17.00;99.90;;;;;;5114078;28;20385;-70
2022/06/12 04:16:51;;;;;;;7.83;7.23;;;17.00;99.90;;;;;;5113924;28;20462;-70
2022/06/12 04:19:22;;;;;;;7.80;7.10;;;17.00;99.90;;;;;;5113717;28;20932;-70
2022/06/12 04:22:06;;;;;;;8.10;7.50;;;17.00;99.90;;;;;;5113771;28;20462;-70
2022/06/12 04:24:39;;;;;;;8.17;7.50;;;17.00;99.90;;;;;;5114019;28;20756;-70
2022/06/12 04:27:14;;;;;;;9.50;8.80;;;17.00;99.90;;;;;;5114046;28;20731;-70
2022/06/12 04:29:51;;;;;;;9.20;8.40;;;17.00;99.90;;;;;;5113383;28;20397;-71
2022/06/12 04:32:16;;;;;;;8.73;8.03;;;17.10;99.90;;;;;;5113967;28;20416;-70
2022/06/12 04:34:42;;;;;;;8.33;7.53;;;17.10;99.90;;;;;;5111985;28;20440;-71
2022/06/12 04:37:25;;;;;;;9.03;8.23;;;17.00;99.90;;;;;;5113730;28;20728;-70
2022/06/12 04:39:51;;;;;;;8.60;7.90;;;17.00;99.90;;;;;;5113127;28;20156;-70
2022/06/12 04:42:20;;;;;;;8.90;8.10;;;17.10;99.90;;;;;;5112531;28;20524;-70
2022/06/12 04:44:47;;;;;;;7.87;7.17;;;17.10;99.90;;;;;;5112384;28;20445;-71
2022/06/12 04:47:16;;;;;;;7.70;7.13;;;17.10;99.90;;;;;;5113946;28;20467;-70
2022/06/12 04:49:42;;;;;;;7.93;7.13;;;17.20;99.90;;;;;;5112854;28;20413;-71
2022/06/12 04:52:10;;;;;;;8.60;8.00;;;17.30;99.90;;;;;;5113563;28;20761;-70
2022/06/12 04:54:38;;;;;;;9.77;7.50;;;17.30;99.90;;;;;;5113716;28;20417;-70
2022/06/12 04:57:06;;;;;;;8.37;7.37;;;17.40;99.90;;;;;;5112781;28;20412;-71
2022/06/12 04:59:32;;;;;;;7.90;7.20;;;17.40;99.90;;;;;;5113355;28;20496;-70
2022/06/12 05:01:58;;;;;;;8.17;7.37;;;17.40;99.90;;;;;;5112713;28;20950;-70
2022/06/12 05:04:26;;;;;;;7.37;6.87;;;17.50;99.90;;;;;;5113278;28;20535;-70
2022/06/12 05:06:52;;;;;;;9.67;7.23;;;17.50;99.90;;;;;;5112746;28;20474;-70
2022/06/12 05:09:20;;;;;;;7.30;6.70;;;17.50;99.90;;;;;;5113222;28;20945;-70
2022/06/12 05:11:47;;;;;;;8.60;6.70;;;17.40;99.90;;;;;;5112701;28;20425;-71
2022/06/12 05:14:13;;;;;;;8.77;7.47;;;17.30;99.90;;;;;;5112160;28;20421;-70
2022/06/12 05:16:51;;;;;;;8.13;7.50;;;17.30;99.90;;;;;;5077128;28;20458;-70
2022/06/12 05:19:22;;;;;;;7.70;7.00;;;17.40;99.90;;;;;;5112635;28;20465;-70
2022/06/12 05:21:48;;;;;;;12.23;7.53;;;17.50;99.90;;;;;;5112612;28;20466;-71
2022/06/12 05:24:15;;;;;;;13.17;8.00;;;17.50;99.90;;;;;;5112775;28;20769;-70
2022/06/12 05:26:45;;;;;;;8.67;7.33;;;17.60;99.90;;;;;;5111586;28;20497;-70
2022/06/12 05:29:17;;;;;;;9.00;7.63;;;17.70;99.90;;;;;;5095000;28;20409;-70
2022/06/12 05:31:46;;;;;;;8.80;7.97;;;17.80;99.90;;;;;;5112646;28;20444;-73
2022/06/12 05:34:13;;;;;;;9.67;7.90;;;17.90;99.90;;;;;;5113145;28;20510;-70
2022/06/12 05:36:38;;;;;;;9.57;7.93;;;17.90;99.90;;;;;;5112994;28;20412;-70
2022/06/12 05:39:04;;;;;;;9.07;8.20;;;17.90;99.90;;;;;;5112401;28;20544;-70
2022/06/12 05:41:30;;;;;;;8.77;7.87;;;17.90;99.90;;;;;;5112995;28;20168;-70
2022/06/12 05:43:56;;;;;;;9.23;7.90;;;17.90;99.90;;;;;;5110933;28;20453;-71
2022/06/12 05:46:22;;;;;;;8.33;7.40;;;17.90;99.90;;;;;;5112906;28;20172;-70
2022/06/12 05:48:48;;;;;;;11.23;8.03;;;17.90;99.90;;;;;;5111860;28;20413;-71
2022/06/12 05:51:16;;;;;;;9.23;8.00;;;18.00;99.90;;;;;;5112767;28;20196;-71
2022/06/12 05:53:42;;;;;;;9.07;7.47;;;18.10;99.90;;;;;;5111319;28;20420;-71
2022/06/12 05:56:11;;;;;;;9.77;7.63;;;18.10;99.90;;;;;;5113327;28;20401;-71
2022/06/12 05:58:38;;;;;;;9.40;7.10;;;18.30;99.90;;;;;;5116823;28;20409;-71
2022/06/12 06:01:06;;;;;;;7.80;7.00;;;18.30;99.90;;;;;;5114839;28;21082;-70
2022/06/12 06:03:32;;;;;;;7.43;6.20;;;18.40;99.90;;;;;;5116331;28;20932;-71
2022/06/12 06:05:58;;;;;;;7.27;6.00;;;18.50;99.90;;;;;;5116051;28;20417;-71
2022/06/12 06:08:24;;;;;;;6.77;6.07;;;18.60;99.90;;;;;;5116761;28;20793;-71
2022/06/12 06:10:50;;;;;;;5.67;5.13;;;18.60;99.90;;;;;;5116332;28;20401;-71
2022/06/12 06:13:16;;;;;;;7.97;6.23;;;18.70;99.90;;;;;;5116502;28;20164;-71
2022/06/12 06:15:43;;;;;;;6.13;5.50;;;18.80;99.90;;;;;;5116490;28;20296;-71
2022/06/12 06:18:09;;;;;;;6.37;5.70;;;18.90;99.90;;;;;;5115577;28;20492;-71
2022/06/12 06:20:37;;;;;;;5.53;5.03;;;19.00;99.90;;;;;;5116531;28;20480;-70
2022/06/12 06:23:03;;;;;;;8.03;5.00;;;19.00;99.90;;;;;;5115955;28;20250;-71
2022/06/12 06:25:31;;;;;;;5.27;4.83;;;19.10;99.90;;;;;;5116439;28;20413;-71
2022/06/12 06:27:57;;;;;;;5.47;4.97;;;19.20;99.90;;;;;;5115591;28;20488;-71
2022/06/12 06:30:25;;;;;;;4.73;4.40;;;19.20;99.90;;;;;;5115864;28;20406;-71
2022/06/12 06:32:51;;;;;;;6.70;4.23;;;19.20;99.90;;;;;;5115512;28;20398;-71
2022/06/12 06:35:17;;;;;;;5.33;4.87;;;19.30;99.90;;;;;;5116302;28;20745;-71
2022/06/12 06:37:44;;;;;;;6.20;4.90;;;19.40;99.90;;;;;;5115195;28;20171;-71
2022/06/12 06:40:12;;;;;;;7.23;4.10;;;19.50;99.60;;;;;;5115433;28;20418;-71
2022/06/12 06:42:37;;;;;;;6.60;5.07;;;19.60;99.60;;;;;;5114743;28;20400;-71
2022/06/12 06:47:48;;;;;;;5.67;4.63;;;19.70;99.80;;;;;;5115167;28;20276;-71
2022/06/12 06:50:16;;;;;;;5.80;4.73;;;19.80;99.90;;;;;;5116174;28;20892;-71
2022/06/12 06:52:42;;;;;;;6.20;4.60;;;19.80;99.90;;;;;;5115696;28;20256;-71
2022/06/12 06:55:09;;;;;;;6.53;4.30;;;19.90;99.40;;;;;;5115082;28;20492;-71
2022/06/12 06:57:37;;;;;;;4.10;3.77;;;20.00;98.70;;;;;;5115493;28;20167;-71
2022/06/12 07:00:05;;;;;;;4.80;3.87;;;20.10;98.50;;;;;;5115015;28;20759;-71
2022/06/12 07:02:31;;;;;;;3.93;3.60;;;20.20;97.00;;;;;;5115619;28;20430;-71
2022/06/12 07:04:58;;;;;;;5.27;3.60;;;20.30;96.90;;;;;;5114869;28;20485;-71
2022/06/12 07:07:24;;;;;;;3.37;3.07;;;20.40;96.50;;;;;;5115248;28;20220;-71
2022/06/12 07:09:50;;;;;;;4.37;4.00;;;20.60;95.70;;;;;;5114578;28;20409;-71
2022/06/12 07:12:16;;;;;;;6.67;3.80;;;20.70;94.80;;;;;;5114182;28;20449;-71
2022/06/12 07:14:42;;;;;;;6.20;3.60;;;20.70;93.90;;;;;;5115716;28;20437;-71
2022/06/12 07:17:08;;;;;;;4.07;3.30;;;20.90;93.00;;;;;;5078575;28;20436;-71
2022/06/12 07:19:34;;;;;;;2.73;2.53;;;21.00;93.30;;;;;;5115005;28;20272;-71
2022/06/12 07:22:00;;;;;;;4.00;2.93;;;21.10;93.10;;;;;;5114869;28;20486;-71
2022/06/12 07:24:26;;;;;;;4.97;3.23;;;21.30;92.40;;;;;;5115044;28;20449;-71
2022/06/12 07:26:52;;;;;;;3.70;3.10;;;21.40;91.30;;;;;;5114460;28;20401;-72
2022/06/12 07:29:21;;;;;;;4.80;3.70;;;21.50;91.80;;;;;;5115334;28;20529;-71
2022/06/12 07:31:47;;;;;;;4.37;3.67;;;21.60;91.80;;;;;;5115028;28;20168;-72
2022/06/12 07:34:14;;;;;;;5.00;3.90;;;21.70;91.70;;;;;;5114371;28;20504;-71
2022/06/12 07:36:42;;;;;;;4.90;4.00;;;21.80;91.30;;;;;;5115158;28;20416;-71
2022/06/12 07:39:12;;;;;;;2.90;2.53;;;21.90;91.40;;;;;;5114297;28;20791;-71
2022/06/12 07:41:39;;;;;;;5.73;3.00;;;22.00;90.60;;;;;;5114882;28;20477;-71
2022/06/12 07:44:06;;;;;;;6.53;2.40;;;22.10;89.60;;;;;;5114259;28;20927;-71
2022/06/12 07:46:32;;;;;;;6.40;2.50;;;22.20;89.40;;;;;;5114441;28;20414;-71
2022/06/12 07:48:58;;;;;;;3.03;2.80;;;22.30;86.70;;;;;;5112768;28;20489;-72
2022/06/12 07:51:24;;;;;;;6.27;3.13;;;22.40;90.10;;;;;;5114632;28;20893;-71
2022/06/12 07:53:51;;;;;;;4.20;2.83;;;22.50;89.80;;;;;;5114274;28;20413;-71
2022/06/12 07:56:18;;;;;;;8.93;3.07;;;22.50;88.10;;;;;;5114543;28;20402;-72
2022/06/12 07:58:45;;;;;;;2.67;2.50;;;22.60;89.10;;;;;;5114528;28;20445;-71
2022/06/12 08:01:14;;;;;;;4.97;2.90;;;22.70;88.70;;;;;;5114072;28;20478;-71
2022/06/12 08:03:40;;;;;;;4.13;3.13;;;22.90;88.90;;;;;;5114054;28;20476;-72
2022/06/12 08:06:06;;;;;;;6.20;2.90;;;23.00;88.00;;;;;;5113725;28;20398;-71
2022/06/12 08:08:32;;;;;;;4.30;3.07;;;23.10;85.80;;;;;;5114412;28;20176;-71
2022/06/12 08:10:59;;;;;;;5.43;3.07;;;23.20;87.80;;;;;;5112188;28;20446;-71
2022/06/12 08:13:25;;;;;;;4.50;3.20;;;23.30;86.50;;;;;;5114555;28;20418;-71
2022/06/12 08:15:52;;;;;;;5.03;2.40;;;23.30;85.90;;;;;;5113861;28;20409;-71
2022/06/12 08:18:20;;;;;;;7.40;4.07;;;23.40;86.80;;;;;;5113693;28;20421;-71
2022/06/12 08:20:54;;;;;;;4.27;3.13;;;23.50;84.50;;;;;;5113212;28;20471;-71
2022/06/12 08:23:27;;;;;;;6.03;2.90;;;23.50;85.30;;;;;;5113814;28;20761;-71
2022/06/12 08:26:13;;;;;;;6.30;2.80;;;23.60;85.70;;;;;;5112682;28;20484;-77
2022/06/12 08:28:46;;;;;;;3.83;3.20;;;23.80;85.60;;;;;;5113770;28;20390;-71
2022/06/12 08:31:16;;;;;;;4.40;3.23;;;23.80;83.90;;;;;;5113284;28;20389;-71
2022/06/12 08:33:44;;;;;;;5.63;3.17;;;24.00;85.30;;;;;;5113988;28;20425;-71
2022/06/12 08:36:12;;;;;;;5.13;3.10;;;24.10;84.50;;;;;;5113407;28;20414;-72
2022/06/12 08:38:38;;;;;;;7.17;3.73;;;24.10;83.60;;;;;;5113667;28;20401;-71
2022/06/12 08:41:12;;;;;;;5.70;3.90;;;24.20;85.60;;;;;;5113367;28;20730;-72
2022/06/12 08:43:50;;;;;;;6.67;4.10;;;24.30;82.20;;;;;;5113550;28;20535;-70
2022/06/12 08:46:24;;;;;;;6.17;3.80;;;24.40;83.70;;;;;;5113044;28;20406;-70
2022/06/12 08:48:56;;;;;;;7.40;4.00;;;24.50;85.80;;;;;;5113470;28;20735;-71
2022/06/12 08:51:31;;;;;;;5.07;3.97;;;24.60;82.20;;;;;;5113679;28;20486;-71
2022/06/12 08:54:20;;;;;;;8.17;4.93;;;24.60;81.40;;;;;;5113010;28;20517;-71
2022/06/12 08:56:55;;;;;;;7.93;3.87;;;24.50;81.60;;;;;;5113129;28;20388;-71
2022/06/12 08:59:34;;;;;;;6.70;3.87;;;24.30;77.40;;;;;;5113435;28;20385;-72
2022/06/12 09:02:04;;;;;;;5.80;4.20;;;24.20;80.40;;;;;;5112724;28;20386;-72
2022/06/12 09:04:31;;;;;;;4.83;4.40;;;24.10;80.10;;;;;;5111909;28;20509;-72
2022/06/12 09:07:28;;;;;;;4.13;3.43;;;24.10;80.30;;;;;;5094881;28;20409;-71
2022/06/12 09:10:04;;;;;;;5.80;3.27;;;24.20;82.80;;;;;;5075480;28;20418;-71
2022/06/12 09:12:44;;;;;;;3.60;3.30;;;24.30;80.30;;;;;;5113126;28;20389;-71
2022/06/12 09:15:23;;;;;;;4.53;4.00;;;24.30;78.00;;;;;;5112657;28;20397;-71
2022/06/12 09:18:17;;;;;;;4.67;4.37;;;24.40;74.90;;;;;;5113026;28;20832;-71
2022/06/12 09:21:03;;;;;;;3.10;2.30;;;24.50;72.60;;;;;;5103476;28;20476;-71
2022/06/12 09:23:46;;;;;;;4.50;4.20;;;24.60;72.80;;;;;;5113001;28;20489;-71
2022/06/12 09:26:17;;;;;;;6.10;4.37;;;24.60;72.40;;;;;;5094292;28;20422;-70
2022/06/12 09:29:05;;;;;;;4.20;3.80;;;24.70;73.00;;;;;;5113094;28;20476;-70
2022/06/12 09:31:38;;;;;;;4.57;4.20;;;24.90;74.20;;;;;;5113477;28;20424;-71
2022/06/12 09:34:12;;;;;;;5.40;4.97;;;24.90;77.70;;;;;;5116509;28;20402;-70
2022/06/12 09:36:47;;;;;;;5.37;4.97;;;25.10;78.30;;;;;;5117318;28;20402;-71
2022/06/12 09:39:46;;;;;;;5.50;5.00;;;25.30;75.20;;;;;;5116859;28;20762;-70
2022/06/12 09:42:17;;;;;;;5.67;5.17;;;25.30;76.00;;;;;;5116270;28;20404;-71
2022/06/12 09:44:49;;;;;;;5.80;5.37;;;25.40;72.00;;;;;;5117098;28;20429;-70
2022/06/12 09:47:25;;;;;;;4.97;4.67;;;25.50;74.70;;;;;;5116142;28;20428;-71
2022/06/12 09:50:21;;;;;;;4.47;3.73;;;25.60;75.30;;;;;;5117285;28;20465;-70
2022/06/12 09:53:28;;;;;;;5.60;5.07;;;25.80;72.30;;;;;;5117293;28;20385;-71
2022/06/12 09:55:57;;;;;;;5.60;5.10;;;26.00;74.10;;;;;;5085541;28;20419;-70
2022/06/12 09:58:30;;;;;;;6.50;5.10;;;26.20;73.50;;;;;;5116796;28;20413;-71
2022/06/12 10:01:04;;;;;;;5.20;4.90;;;26.20;73.00;;;;;;5116312;28;20458;-71
2022/06/12 10:03:39;;;;;;;5.00;4.07;;;26.30;73.30;;;;;;5116437;28;20443;-70
2022/06/12 10:06:23;;;;;;;3.73;3.17;;;26.40;71.40;;;;;;5116176;28;20413;-71
2022/06/12 10:09:28;;;;;;;3.63;3.10;;;26.60;69.00;;;;;;5115821;28;20397;-71
2022/06/12 10:12:04;;;;;;;6.43;3.60;;;26.60;66.40;;;;;;5073827;28;20860;-72
2022/06/12 10:14:48;;;;;;;5.70;3.50;;;26.70;67.00;;;;;;5107187;28;20428;-69
2022/06/12 10:17:30;;;;;;;3.27;2.97;;;26.70;67.70;;;;;;5115946;28;20393;-69
2022/06/12 10:20:04;;;;;;;5.03;3.40;;;26.80;67.60;;;;;;5115813;28;20460;-70
2022/06/12 10:22:34;;;;;;;3.63;3.30;;;26.90;68.60;;;;;;5115327;28;20417;-70
2022/06/12 10:25:04;;;;;;;3.10;2.80;;;27.00;66.20;;;;;;5115531;28;20447;-74
2022/06/12 10:27:43;;;;;;;3.00;2.77;;;26.90;61.60;;;;;;5116350;28;20409;-71
2022/06/12 10:30:22;;;;;;;3.67;3.40;;;26.90;61.40;;;;;;5115610;28;20402;-71
2022/06/12 10:32:56;;;;;;;3.13;2.97;;;27.00;61.90;;;;;;5098007;28;20438;-71
2022/06/12 10:35:24;;;;;;;3.23;2.70;;;27.00;60.60;;;;;;5115754;28;20416;-71
2022/06/12 10:37:50;;;;;;;2.50;2.30;;;27.10;59.60;;;;;;5115772;28;20802;-70
2022/06/12 10:40:36;;;;;;;2.50;2.30;;;27.10;56.50;;;;;;5099593;28;20420;-70
2022/06/12 10:43:17;;;;;;;2.97;2.77;;;27.20;59.50;;;;;;5112439;28;20917;-71
2022/06/12 10:45:42;;;;;;;3.40;3.20;;;27.20;56.60;;;;;;5113667;28;20666;-71
2022/06/12 10:48:26;;;;;;;3.10;2.80;;;27.20;57.40;;;;;;5095714;28;20430;-71
2022/06/12 10:50:58;;;;;;;3.10;2.80;;;27.20;55.40;;;;;;5113542;28;20175;-70
2022/06/12 10:53:26;;;;;;;2.33;2.20;;;27.30;56.80;;;;;;5078862;28;20413;-72
2022/06/12 10:56:08;;;;;;;2.80;2.60;;;27.30;55.60;;;;;;5113449;28;20472;-72
2022/06/12 10:58:50;;;;;;;3.20;3.00;;;27.40;55.30;;;;;;5113478;28;20535;-72
2022/06/12 11:01:37;;;;;;;3.60;3.40;;;27.40;56.10;;;;;;5095794;28;20563;-71
2022/06/12 11:04:05;;;;;;;4.03;3.77;;;27.50;54.50;;;;;;5095548;28;20453;-76
2022/06/12 11:06:42;;;;;;;3.50;3.30;;;27.60;58.00;;;;;;5113158;28;20410;-72
2022/06/12 11:09:25;;;;;;;3.40;3.30;;;27.60;54.80;;;;;;5095446;28;20425;-71
2022/06/12 11:11:58;;;;;;;2.87;2.60;;;27.70;57.30;;;;;;5105561;28;20448;-71
2022/06/12 11:15:02;;;;;;;3.87;3.67;;;27.80;57.20;;;;;;5113542;28;20440;-71
2022/06/12 11:17:39;;;;;;;4.03;3.60;;;27.80;56.10;;;;;;5104193;28;21157;-71
2022/06/12 11:20:17;;;;;;;3.83;3.53;;;27.80;54.90;;;;;;5114230;28;20453;-70
2022/06/12 11:23:03;;;;;;;4.53;4.00;;;27.80;58.10;;;;;;5115317;28;20405;-70
2022/06/12 11:25:29;;;;;;;4.83;4.13;;;27.90;56.70;;;;;;5115213;28;20441;-70
2022/06/12 11:28:11;;;;;;;3.73;3.10;;;27.90;56.80;;;;;;5115268;28;20740;-70
2022/06/12 11:30:55;;;;;;;3.10;2.90;;;27.90;53.10;;;;;;5115469;28;20183;-71
2022/06/12 11:33:53;;;;;;;3.10;2.90;;;27.90;55.20;;;;;;5114365;28;20394;-71
2022/06/12 11:36:46;;;;;;;2.90;2.60;;;28.00;55.20;;;;;;5078363;28;20418;-71
2022/06/12 11:39:14;;;;;;;2.70;2.50;;;28.00;55.50;;;;;;5113138;28;20397;-71
2022/06/12 11:42:02;;;;;;;3.57;3.27;;;28.00;56.60;;;;;;5114891;28;20416;-71
2022/06/12 11:44:33;;;;;;;3.23;3.03;;;28.10;56.40;;;;;;5114189;28;20429;-71
2022/06/12 11:47:19;;;;;;;3.37;3.10;;;28.00;55.30;;;;;;5114830;28;20470;-71
2022/06/12 11:50:36;;;;;;;3.20;3.00;;;28.10;56.90;;;;;;5114369;28;20412;-71
2022/06/12 11:53:20;;;;;;;3.50;3.20;;;28.00;56.80;;;;;;5071454;28;20894;-70
2022/06/12 11:56:09;;;;;;;3.40;3.13;;;27.90;54.40;;;;;;5114266;28;20446;-71
2022/06/12 11:58:46;;;;;;;3.40;3.10;;;28.00;55.50;;;;;;5114858;28;20394;-71
2022/06/12 12:01:25;;;;;;;3.03;2.73;;;27.90;54.90;;;;;;5113907;28;20398;-71
2022/06/12 12:04:14;;;;;;;4.10;3.80;;;27.90;55.60;;;;;;5114540;28;20449;-71
2022/06/12 12:06:49;;;;;;;3.97;3.60;;;28.00;55.90;;;;;;5114434;28;20405;-70
2022/06/12 12:09:23;;;;;;;5.23;3.57;;;28.00;57.20;;;;;;5112448;28;20413;-71
2022/06/12 12:12:00;;;;;;;4.77;4.37;;;28.00;56.40;;;;;;5114098;28;20787;-71
2022/06/12 12:14:33;;;;;;;4.00;3.70;;;28.00;58.10;;;;;;5113718;28;20646;-71
2022/06/12 12:17:17;;;;;;;4.10;3.80;;;28.10;56.80;;;;;;5114265;28;20405;-71
2022/06/12 12:19:51;;;;;;;3.30;3.10;;;28.10;58.40;;;;;;5114102;28;20489;-70
2022/06/12 12:22:48;;;;;;;3.60;3.30;;;28.00;55.50;;;;;;5113387;28;20459;-71
2022/06/12 12:25:36;;;;;;;2.80;2.70;;;27.90;54.50;;;;;;5113541;28;20441;-71
2022/06/12 12:28:16;;;;;;;3.57;3.27;;;27.90;54.50;;;;;;5113919;28;20390;-71
2022/06/12 12:30:43;;;;;;;3.37;3.03;;;28.00;56.20;;;;;;5113979;28;20393;-71
2022/06/12 12:33:18;;;;;;;3.10;2.90;;;27.90;54.60;;;;;;5113209;28;20398;-71
2022/06/12 12:41:17;;;;;;;4.20;3.80;;;27.90;54.50;;;;;;5112850;28;20398;-71
2022/06/12 12:43:57;;;;;;;3.57;3.30;;;27.90;54.90;;;;;;5111906;28;20533;-71
2022/06/12 12:46:26;;;;;;;3.43;3.23;;;27.80;54.90;;;;;;5113141;28;20404;-70
2022/06/12 12:48:56;;;;;;;3.33;3.13;;;27.90;55.10;;;;;;5113361;28;20440;-71
2022/06/12 12:51:33;;;;;;;3.77;3.57;;;27.90;55.10;;;;;;5113368;28;20450;-71
2022/06/12 12:54:27;;;;;;;3.80;3.50;;;27.90;55.00;;;;;;5113707;28;20402;-71
2022/06/12 12:57:04;;;;;;;4.33;3.90;;;28.00;55.60;;;;;;5113648;28;20404;-71
2022/06/12 12:59:52;;;;;;;3.53;3.30;;;27.90;54.50;;;;;;5111540;28;20397;-71
2022/06/12 13:02:21;;;;;;;3.87;3.20;;;27.90;53.90;;;;;;5112968;28;20398;-71
2022/06/12 13:04:47;;;;;;;4.07;3.60;;;27.80;54.60;;;;;;5113121;28;20507;-70
2022/06/12 13:07:30;;;;;;;5.87;3.53;;;27.70;57.00;;;;;;5112673;28;20484;-70
2022/06/12 13:09:59;;;;;;;8.07;4.70;;;27.80;56.50;;;;;;5113357;28;20732;-71
2022/06/12 13:12:33;;;;;;;4.33;3.93;;;27.80;55.10;;;;;;5112770;28;20417;-71
2022/06/12 13:15:02;;;;;;;7.80;3.73;;;27.70;56.30;;;;;;5113255;28;20397;-71
2022/06/12 13:17:47;;;;;;;4.50;4.10;;;27.80;56.30;;;;;;5112343;28;20462;-71
2022/06/12 13:20:12;;;;;;;7.00;4.10;;;27.70;54.20;;;;;;5112197;28;20459;-71
2022/06/12 13:22:55;;;;;;;4.20;3.90;;;27.60;55.80;;;;;;5113132;28;20504;-70
2022/06/12 13:25:40;;;;;;;4.60;4.20;;;27.60;55.10;;;;;;5112546;28;20533;-71
2022/06/12 13:28:17;;;;;;;4.10;3.80;;;27.70;57.70;;;;;;5077051;28;20488;-70
2022/06/12 13:30:43;;;;;;;4.40;4.00;;;27.60;55.70;;;;;;5113478;28;20401;-70
2022/06/12 13:33:16;;;;;;;4.40;4.03;;;27.70;55.70;;;;;;5113076;28;20419;-71
2022/06/12 13:35:50;;;;;;;4.20;3.90;;;27.70;56.40;;;;;;5113172;28;20510;-70
2022/06/12 13:38:29;;;;;;;5.57;4.30;;;27.70;56.30;;;;;;5111431;28;20404;-71